Time;durP1;ratioP1;P1;durP2;ratioP2;P2;SDS_P1;SDS_P2;PMS_P1;PMS_P2;Temp;Humidity;BMP_temperature;BMP_pressure;BME280_temperature;BME280_humidity;BME280_pressure;Samples;Min_cycle;Max_cycle;Signal;HPM_P1;HPM_P2
2022/12/20 00:01:20;;;;;;;;;;;12.00;99.90;;;;;;7348014;19;113248;-92
2022/12/20 00:03:51;;;;;;;;;;;12.10;99.90;;;;;;7352011;19;108555;-91
2022/12/20 00:06:18;;;;;;;;;;;12.10;99.90;;;;;;7349730;19;109282;-92
2022/12/20 00:08:45;;;;;;;;;;;12.10;99.90;;;;;;7347209;19;110944;-91
2022/12/20 00:11:13;;;;;;;;;;;12.20;99.90;;;;;;7341647;19;108804;-91
2022/12/20 00:13:40;;;;;;;;;;;12.20;99.90;;;;;;7344508;19;111822;-91
2022/12/20 00:16:07;;;;;;;;;;;12.20;99.90;;;;;;7344780;19;111776;-91
2022/12/20 00:18:34;;;;;;;;;;;12.20;99.90;;;;;;7354708;19;108871;-92
2022/12/20 00:21:02;;;;;;;;;;;12.20;99.90;;;;;;7345382;19;109663;-92
2022/12/20 00:23:29;;;;;;;;;;;12.30;99.90;;;;;;7346321;19;110433;-92
2022/12/20 00:25:59;;;;;;;;;;;12.30;99.90;;;;;;7340883;19;111007;-92
2022/12/20 00:28:26;;;;;;;;;;;12.30;99.90;;;;;;7347438;19;109557;-92
2022/12/20 00:30:54;;;;;;;;;;;12.30;99.90;;;;;;7346676;19;108507;-93
2022/12/20 00:33:21;;;;;;;;;;;12.30;99.90;;;;;;7339824;19;109331;-93
2022/12/20 00:35:48;;;;;;;;;;;12.30;99.90;;;;;;7341548;19;111443;-92
2022/12/20 00:38:15;;;;;;;;;;;12.30;99.90;;;;;;7346019;19;108713;-93
2022/12/20 00:40:42;;;;;;;;;;;12.30;99.90;;;;;;7358131;19;110607;-93
2022/12/20 00:43:09;;;;;;;;;;;12.30;99.90;;;;;;7354904;19;108404;-93
2022/12/20 00:45:36;;;;;;;;;;;12.30;99.90;;;;;;7353980;19;109650;-95
2022/12/20 00:48:03;;;;;;;;;;;12.30;99.90;;;;;;7352622;19;109437;-93
2022/12/20 00:50:30;;;;;;;;;;;12.30;99.90;;;;;;7355754;19;108336;-95
2022/12/20 00:52:57;;;;;;;;;;;12.30;99.90;;;;;;7354676;19;109242;-95
2022/12/20 00:55:24;;;;;;;;;;;12.20;99.90;;;;;;7354659;19;109188;-95
2022/12/20 00:57:51;;;;;;;;;;;12.20;99.90;;;;;;7355356;19;109164;-94
2022/12/20 01:00:18;;;;;;;;;;;12.20;99.90;;;;;;7357630;19;112081;-96
2022/12/20 01:02:45;;;;;;;;;;;12.20;99.90;;;;;;7360448;19;109817;-95
2022/12/20 01:05:12;;;;;;;;;;;12.20;99.90;;;;;;7352599;19;110479;-94
2022/12/20 01:07:39;;;;;;;;;;;12.20;99.90;;;;;;7353347;19;109626;-93
2022/12/20 01:10:06;;;;;;;;;;;12.20;99.90;;;;;;7353402;19;108298;-93
2022/12/20 01:12:33;;;;;;;;;;;12.20;99.90;;;;;;7352110;19;109269;-94
2022/12/20 01:15:00;;;;;;;;;;;12.20;99.90;;;;;;7347549;19;108874;-93
2022/12/20 01:17:27;;;;;;;;;;;12.10;99.90;;;;;;7344957;19;108400;-93
2022/12/20 01:19:54;;;;;;;;;;;12.10;99.90;;;;;;7342366;19;111824;-92
2022/12/20 01:22:21;;;;;;;;;;;12.10;99.90;;;;;;7348243;19;109175;-93
2022/12/20 01:24:48;;;;;;;;;;;12.10;99.90;;;;;;7356526;19;108739;-93
2022/12/20 01:27:15;;;;;;;;;;;12.10;99.90;;;;;;7339230;19;110426;-92
2022/12/20 01:29:42;;;;;;;;;;;12.10;99.90;;;;;;7346337;19;108528;-92
2022/12/20 01:32:09;;;;;;;;;;;12.10;99.90;;;;;;7343626;19;109417;-93
2022/12/20 01:34:36;;;;;;;;;;;12.20;99.90;;;;;;7345747;19;110145;-93
2022/12/20 01:37:03;;;;;;;;;;;12.10;99.90;;;;;;7341427;19;108325;-93
2022/12/20 01:39:29;;;;;;;;;;;12.10;99.90;;;;;;7346821;19;109166;-91
2022/12/20 01:41:56;;;;;;;;;;;12.00;99.90;;;;;;7346910;19;110989;-93
2022/12/20 01:44:23;;;;;;;;;;;11.90;99.90;;;;;;7346237;19;108465;-93
2022/12/20 01:46:51;;;;;;;;;;;11.80;99.90;;;;;;7353720;19;108625;-92
2022/12/20 01:49:33;;;;;;;;;;;11.80;99.90;;;;;;7347556;19;108747;-92
2022/12/20 01:52:19;;;;;;;;;;;11.80;99.90;;;;;;7347705;19;110388;-93
2022/12/20 01:54:46;;;;;;;;;;;11.70;99.90;;;;;;7345296;19;109020;-93
2022/12/20 01:57:15;;;;;;;;;;;11.70;99.90;;;;;;7346213;19;108840;-94
2022/12/20 01:59:43;;;;;;;;;;;11.70;99.90;;;;;;7349562;19;108745;-93
2022/12/20 02:02:11;;;;;;;;;;;11.70;99.90;;;;;;7345595;19;113147;-92
2022/12/20 02:04:38;;;;;;;;;;;11.70;99.90;;;;;;7348439;19;108707;-92
2022/12/20 02:07:07;;;;;;;;;;;11.80;99.90;;;;;;7349778;19;109345;-93
2022/12/20 02:09:34;;;;;;;;;;;11.80;99.90;;;;;;7345982;19;108809;-92
2022/12/20 02:12:01;;;;;;;;;;;11.80;99.90;;;;;;7348261;19;112684;-92
2022/12/20 02:14:28;;;;;;;;;;;11.90;99.90;;;;;;7348227;19;109971;-92
2022/12/20 02:17:01;;;;;;;;;;;11.90;99.90;;;;;;7345780;19;108597;-93
2022/12/20 02:19:34;;;;;;;;;;;11.90;99.90;;;;;;7345578;19;108770;-93
2022/12/20 02:22:20;;;;;;;;;;;11.90;99.90;;;;;;7346499;19;110060;-93
2022/12/20 02:25:00;;;;;;;;;;;11.90;99.90;;;;;;7347240;19;108489;-92
2022/12/20 02:27:30;;;;;;;;;;;11.90;99.90;;;;;;7349050;19;108415;-92
2022/12/20 02:30:00;;;;;;;;;;;11.90;99.90;;;;;;7360699;19;110714;-93
2022/12/20 02:32:30;;;;;;;;;;;11.90;99.90;;;;;;7352731;19;113216;-93
2022/12/20 02:34:57;;;;;;;;;;;12.00;99.90;;;;;;7352092;19;110326;-92
2022/12/20 02:37:24;;;;;;;;;;;12.00;99.90;;;;;;7351166;19;109853;-92
2022/12/20 02:39:51;;;;;;;;;;;12.00;99.90;;;;;;7353067;19;112331;-92
2022/12/20 02:42:20;;;;;;;;;;;12.00;99.90;;;;;;7345388;19;110221;-93
2022/12/20 02:47:37;;;;;;;;;;;12.00;99.90;;;;;;7353347;19;109620;-92
2022/12/20 02:50:05;;;;;;;;;;;12.00;99.90;;;;;;7351181;19;110560;-93
2022/12/20 02:52:32;;;;;;;;;;;12.00;99.90;;;;;;7357037;19;108472;-94
2022/12/20 02:55:00;;;;;;;;;;;12.10;99.90;;;;;;7350855;19;109565;-92
2022/12/20 02:57:57;;;;;;;;;;;12.10;99.90;;;;;;7352997;19;108499;-93
2022/12/20 03:00:30;;;;;;;;;;;12.10;99.90;;;;;;7348050;19;112459;-92
2022/12/20 03:05:44;;;;;;;;;;;12.10;99.90;;;;;;7345314;19;109282;-93
2022/12/20 03:08:11;;;;;;;;;;;12.10;99.90;;;;;;7350467;19;109578;-92
2022/12/20 03:10:38;;;;;;;;;;;12.20;99.90;;;;;;7345285;19;110244;-92
2022/12/20 03:13:05;;;;;;;;;;;12.20;99.90;;;;;;7352060;19;108372;-93
2022/12/20 03:15:32;;;;;;;;;;;12.20;99.90;;;;;;7353827;19;109656;-94
2022/12/20 03:17:59;;;;;;;;;;;12.20;99.90;;;;;;7343882;19;108776;-91
2022/12/20 03:20:26;;;;;;;;;;;12.20;99.90;;;;;;7340008;19;112384;-94
2022/12/20 03:22:52;;;;;;;;;;;12.20;99.90;;;;;;7344773;19;111098;-92
2022/12/20 03:25:19;;;;;;;;;;;12.30;99.90;;;;;;7342651;19;110133;-94
2022/12/20 03:27:46;;;;;;;;;;;12.30;99.90;;;;;;7344344;19;108527;-91
2022/12/20 03:30:13;;;;;;;;;;;12.30;99.90;;;;;;7347919;19;109637;-92
2022/12/20 03:32:40;;;;;;;;;;;12.40;99.90;;;;;;7348219;19;108546;-92
2022/12/20 03:35:07;;;;;;;;;;;12.40;99.90;;;;;;7341467;19;110501;-91
2022/12/20 03:37:35;;;;;;;;;;;12.40;99.90;;;;;;7347532;19;110060;-92
2022/12/20 03:40:02;;;;;;;;;;;12.40;99.90;;;;;;7347744;19;111836;-93
2022/12/20 03:42:29;;;;;;;;;;;12.40;99.90;;;;;;7349693;19;110170;-92
2022/12/20 03:44:56;;;;;;;;;;;12.40;99.90;;;;;;7349686;19;109819;-92
2022/12/20 03:47:23;;;;;;;;;;;12.40;99.90;;;;;;7351325;19;108414;-92
2022/12/20 03:49:50;;;;;;;;;;;12.40;99.90;;;;;;7352343;19;110926;-92
2022/12/20 03:52:17;;;;;;;;;;;12.40;99.90;;;;;;7349412;19;108700;-92
2022/12/20 03:54:44;;;;;;;;;;;12.40;99.90;;;;;;7348583;19;108683;-91
2022/12/20 03:57:11;;;;;;;;;;;12.40;99.90;;;;;;7348782;19;109073;-93
2022/12/20 03:59:38;;;;;;;;;;;12.40;99.90;;;;;;7355432;19;108759;-93
2022/12/20 04:02:05;;;;;;;;;;;12.50;99.90;;;;;;7349740;19;112957;-92
2022/12/20 04:04:32;;;;;;;;;;;12.50;99.90;;;;;;7349909;19;109064;-93
2022/12/20 04:06:59;;;;;;;;;;;12.50;99.90;;;;;;7350721;19;108594;-93
2022/12/20 04:09:26;;;;;;;;;;;12.50;99.90;;;;;;7346758;19;113179;-93
2022/12/20 04:11:53;;;;;;;;;;;12.40;99.90;;;;;;7350151;19;108579;-92
2022/12/20 04:14:20;;;;;;;;;;;12.50;99.90;;;;;;7349095;19;108660;-92
2022/12/20 04:16:47;;;;;;;;;;;12.50;99.90;;;;;;7350133;19;110525;-91
2022/12/20 04:19:14;;;;;;;;;;;12.50;99.90;;;;;;7354535;19;108762;-92
2022/12/20 04:21:41;;;;;;;;;;;12.50;99.90;;;;;;7347606;19;110619;-92
2022/12/20 04:24:09;;;;;;;;;;;12.50;99.90;;;;;;7350617;19;108394;-92
2022/12/20 04:26:36;;;;;;;;;;;12.60;99.90;;;;;;7350695;19;109697;-92
2022/12/20 04:29:03;;;;;;;;;;;12.50;99.90;;;;;;7349348;19;112526;-93
2022/12/20 04:31:30;;;;;;;;;;;12.60;99.90;;;;;;7346240;19;108863;-92
2022/12/20 04:33:57;;;;;;;;;;;12.50;99.90;;;;;;7349219;19;111613;-92
2022/12/20 04:36:24;;;;;;;;;;;12.50;99.90;;;;;;7349264;19;110920;-93
2022/12/20 04:38:51;;;;;;;;;;;12.50;99.90;;;;;;7342237;19;108314;-92
2022/12/20 04:41:21;;;;;;;;;;;12.50;99.90;;;;;;7347292;19;110424;-93
2022/12/20 04:43:49;;;;;;;;;;;12.50;99.90;;;;;;7341507;19;108340;-92
2022/12/20 04:46:17;;;;;;;;;;;12.60;99.90;;;;;;7340026;19;111456;-92
2022/12/20 04:48:44;;;;;;;;;;;12.50;99.90;;;;;;7340567;19;109952;-93
2022/12/20 04:51:23;;;;;;;;;;;12.50;99.90;;;;;;7346424;19;108321;-92
2022/12/20 04:53:50;;;;;;;;;;;12.50;99.90;;;;;;7347638;19;112548;-93
2022/12/20 04:56:21;;;;;;;;;;;12.50;99.90;;;;;;7346603;19;109943;-92
2022/12/20 04:58:49;;;;;;;;;;;12.50;99.90;;;;;;7347985;19;108861;-92
2022/12/20 05:01:17;;;;;;;;;;;12.40;99.90;;;;;;7348146;19;109287;-93
2022/12/20 05:03:44;;;;;;;;;;;12.40;99.90;;;;;;7353562;19;112879;-92
2022/12/20 05:06:11;;;;;;;;;;;12.40;99.90;;;;;;7348726;19;110378;-92
2022/12/20 05:08:38;;;;;;;;;;;12.40;99.90;;;;;;7348704;19;110488;-93
2022/12/20 05:11:05;;;;;;;;;;;12.40;99.90;;;;;;7346845;19;108745;-92
2022/12/20 05:13:32;;;;;;;;;;;12.30;99.90;;;;;;7342247;19;109221;-93
2022/12/20 05:15:59;;;;;;;;;;;12.30;99.90;;;;;;7338553;19;110421;-93
2022/12/20 05:18:26;;;;;;;;;;;12.30;99.90;;;;;;7338940;19;108278;-93
2022/12/20 05:26:16;;;;;;;;;;;12.20;99.90;;;;;;7338554;19;108619;-93
2022/12/20 05:26:29;;;;;;;;;;;12.20;99.90;;;;;;7345719;19;108362;-94
2022/12/20 05:28:56;;;;;;;;;;;12.20;99.90;;;;;;7341428;19;111992;-94
2022/12/20 05:31:23;;;;;;;;;;;12.20;99.90;;;;;;7346590;19;110042;-93
2022/12/20 05:33:50;;;;;;;;;;;12.20;99.90;;;;;;7341860;19;111316;-94
2022/12/20 05:36:17;;;;;;;;;;;12.20;99.90;;;;;;7340568;19;113477;-93
2022/12/20 05:38:44;;;;;;;;;;;12.20;99.90;;;;;;7347976;19;110062;-93
2022/12/20 05:41:11;;;;;;;;;;;12.20;99.90;;;;;;7351065;19;108873;-93
2022/12/20 05:43:38;;;;;;;;;;;12.20;99.90;;;;;;7347911;19;110687;-93
2022/12/20 05:46:05;;;;;;;;;;;12.20;99.90;;;;;;7346638;19;108697;-93
2022/12/20 05:48:32;;;;;;;;;;;12.20;99.90;;;;;;7352919;19;111756;-94
2022/12/20 05:51:00;;;;;;;;;;;12.10;99.90;;;;;;7348916;19;108977;-92
2022/12/20 05:53:27;;;;;;;;;;;12.10;99.90;;;;;;7346021;19;111524;-92
2022/12/20 05:55:54;;;;;;;;;;;12.00;99.90;;;;;;7346199;19;111291;-92
2022/12/20 05:58:21;;;;;;;;;;;12.00;99.90;;;;;;7345266;19;108845;-93
2022/12/20 06:00:48;;;;;;;;;;;12.00;99.90;;;;;;7340073;19;109443;-91
2022/12/20 06:03:15;;;;;;;;;;;11.90;99.90;;;;;;7334255;19;109591;-93
2022/12/20 06:05:43;;;;;;;;;;;11.90;99.90;;;;;;7340900;19;108497;-92
2022/12/20 06:08:11;;;;;;;;;;;11.90;99.90;;;;;;7350805;19;108647;-93
2022/12/20 06:10:39;;;;;;;;;;;11.90;99.90;;;;;;7345513;19;108979;-94
2022/12/20 06:13:07;;;;;;;;;;;11.90;99.90;;;;;;7339844;19;109470;-93
2022/12/20 06:15:34;;;;;;;;;;;11.90;99.90;;;;;;7341634;19;114090;-92
2022/12/20 06:18:01;;;;;;;;;;;11.90;99.90;;;;;;7347895;19;108346;-92
2022/12/20 06:20:28;;;;;;;;;;;11.80;99.90;;;;;;7340767;19;109427;-92
2022/12/20 06:22:55;;;;;;;;;;;11.80;99.90;;;;;;7343898;19;112068;-91
2022/12/20 06:25:22;;;;;;;;;;;11.80;99.90;;;;;;7346153;19;108246;-95
2022/12/20 06:27:48;;;;;;;;;;;11.70;99.90;;;;;;7346548;19;109175;-92
2022/12/20 06:30:16;;;;;;;;;;;11.70;99.90;;;;;;7350024;19;110471;-92
2022/12/20 06:32:43;;;;;;;;;;;11.70;99.90;;;;;;7346084;19;108842;-92
2022/12/20 06:35:10;;;;;;;;;;;11.80;99.90;;;;;;7343466;19;111801;-92
2022/12/20 06:37:39;;;;;;;;;;;11.80;99.90;;;;;;7339863;19;108961;-93
2022/12/20 06:40:07;;;;;;;;;;;11.80;99.90;;;;;;7338043;19;109515;-92
2022/12/20 06:42:34;;;;;;;;;;;11.80;99.90;;;;;;7342371;19;111704;-91
2022/12/20 06:45:02;;;;;;;;;;;11.70;99.90;;;;;;7346106;19;108813;-93
2022/12/20 06:47:29;;;;;;;;;;;11.70;99.90;;;;;;7344346;19;108696;-93
2022/12/20 06:49:56;;;;;;;;;;;11.70;99.90;;;;;;7346983;19;110548;-94
2022/12/20 06:52:23;;;;;;;;;;;11.70;99.90;;;;;;7352082;19;108365;-92
2022/12/20 06:54:51;;;;;;;;;;;11.70;99.90;;;;;;7346478;19;109276;-93
2022/12/20 06:57:18;;;;;;;;;;;11.70;99.90;;;;;;7346417;19;108577;-92
2022/12/20 06:59:45;;;;;;;;;;;11.80;99.90;;;;;;7346975;19;111471;-92
2022/12/20 07:02:12;;;;;;;;;;;11.80;99.90;;;;;;7343585;19;109825;-91
2022/12/20 07:04:40;;;;;;;;;;;11.80;99.90;;;;;;7346500;19;108508;-93
2022/12/20 07:07:07;;;;;;;;;;;11.80;99.90;;;;;;7343906;19;109300;-92
2022/12/20 07:09:34;;;;;;;;;;;11.70;99.90;;;;;;7342681;19;108807;-91
2022/12/20 07:12:01;;;;;;;;;;;11.80;99.90;;;;;;7344343;19;108695;-92
2022/12/20 07:14:28;;;;;;;;;;;11.80;99.90;;;;;;7347404;19;109461;-91
2022/12/20 07:16:55;;;;;;;;;;;11.80;99.90;;;;;;7349031;19;108335;-91
2022/12/20 07:19:22;;;;;;;;;;;11.80;99.90;;;;;;7349920;19;109456;-90
2022/12/20 07:21:49;;;;;;;;;;;11.90;99.90;;;;;;7347367;19;109847;-88
2022/12/20 07:24:15;;;;;;;;;;;11.90;99.90;;;;;;7346280;19;108467;-88
2022/12/20 07:26:43;;;;;;;;;;;11.90;99.90;;;;;;7346606;19;109407;-89
2022/12/20 07:29:11;;;;;;;;;;;12.00;99.90;;;;;;7343332;19;109973;-87
2022/12/20 07:31:41;;;;;;;;;;;12.00;99.90;;;;;;7345554;19;108770;-89
2022/12/20 07:34:09;;;;;;;;;;;12.00;99.90;;;;;;7342927;19;111862;-89
2022/12/20 07:36:36;;;;;;;;;;;12.00;99.90;;;;;;7349235;19;109442;-88
2022/12/20 07:39:03;;;;;;;;;;;12.00;99.90;;;;;;7343793;19;109141;-87
2022/12/20 07:41:30;;;;;;;;;;;12.00;99.90;;;;;;7344451;19;109353;-88
2022/12/20 07:43:58;;;;;;;;;;;12.10;99.90;;;;;;7348163;19;108322;-90
2022/12/20 07:46:25;;;;;;;;;;;12.10;99.90;;;;;;7345268;19;108526;-89
2022/12/20 07:48:52;;;;;;;;;;;12.00;99.90;;;;;;7350041;19;109033;-91
2022/12/20 07:51:23;;;;;;;;;;;12.10;99.90;;;;;;7349444;19;108337;-90
2022/12/20 07:53:58;;;;;;;;;;;12.10;99.90;;;;;;7347511;19;109487;-89
2022/12/20 07:56:25;;;;;;;;;;;12.10;99.90;;;;;;7339544;19;113255;-90
2022/12/20 07:58:55;;;;;;;;;;;12.00;99.90;;;;;;7344028;19;109410;-90
2022/12/20 08:01:22;;;;;;;;;;;12.10;99.90;;;;;;7338490;19;110573;-91
2022/12/20 08:03:52;;;;;;;;;;;12.10;99.90;;;;;;7339336;19;109529;-91
2022/12/20 08:06:19;;;;;;;;;;;12.00;99.90;;;;;;7340232;19;110911;-91
2022/12/20 08:08:49;;;;;;;;;;;12.00;99.90;;;;;;7339608;19;111895;-91
2022/12/20 08:11:16;;;;;;;;;;;12.00;99.90;;;;;;7341428;19;108506;-92
2022/12/20 08:13:43;;;;;;;;;;;12.00;99.90;;;;;;7342229;19;109244;-92
2022/12/20 08:16:13;;;;;;;;;;;12.00;99.90;;;;;;7342158;19;110211;-92
2022/12/20 08:18:40;;;;;;;;;;;12.00;99.90;;;;;;7347219;19;109032;-92
2022/12/20 08:21:11;;;;;;;;;;;11.90;99.90;;;;;;7340846;19;110327;-91
2022/12/20 08:23:38;;;;;;;;;;;11.90;99.90;;;;;;7343618;19;108861;-92
2022/12/20 08:26:05;;;;;;;;;;;11.90;99.90;;;;;;7339407;19;108911;-91
2022/12/20 08:28:33;;;;;;;;;;;11.90;99.90;;;;;;7340670;19;109901;-92
2022/12/20 08:31:01;;;;;;;;;;;11.90;99.90;;;;;;7342724;19;108603;-92
2022/12/20 08:33:28;;;;;;;;;;;11.90;99.90;;;;;;7340414;19;109154;-91
2022/12/20 08:35:56;;;;;;;;;;;11.90;99.90;;;;;;7339220;19;109318;-90
2022/12/20 08:38:24;;;;;;;;;;;11.90;99.90;;;;;;7341499;19;108371;-91
2022/12/20 08:40:51;;;;;;;;;;;11.90;99.90;;;;;;7343650;19;109534;-90
2022/12/20 08:43:18;;;;;;;;;;;11.90;99.90;;;;;;7342301;19;109718;-89
2022/12/20 08:45:50;;;;;;;;;;;11.90;99.90;;;;;;7345915;19;109299;-89
2022/12/20 08:48:17;;;;;;;;;;;12.00;99.90;;;;;;7344465;19;110190;-91
2022/12/20 08:50:44;;;;;;;;;;;11.90;99.90;;;;;;7349000;19;108975;-92
2022/12/20 08:53:11;;;;;;;;;;;11.80;99.90;;;;;;7346473;19;108371;-90
2022/12/20 08:55:38;;;;;;;;;;;11.70;99.90;;;;;;7347448;19;110732;-91
2022/12/20 08:58:05;;;;;;;;;;;11.70;99.90;;;;;;7349499;19;108312;-91
2022/12/20 09:00:32;;;;;;;;;;;11.70;99.90;;;;;;7345888;19;108975;-91
2022/12/20 09:02:59;;;;;;;;;;;11.60;99.90;;;;;;7353238;19;110228;-91
2022/12/20 09:05:26;;;;;;;;;;;11.60;99.90;;;;;;7347528;19;108397;-92
2022/12/20 09:07:53;;;;;;;;;;;11.60;99.90;;;;;;7345697;19;110844;-90
2022/12/20 09:10:20;;;;;;;;;;;11.60;99.90;;;;;;7344766;19;108520;-91
2022/12/20 09:12:47;;;;;;;;;;;11.60;99.90;;;;;;7347660;19;110782;-91
2022/12/20 09:15:14;;;;;;;;;;;11.60;99.90;;;;;;7346518;19;110854;-92
2022/12/20 09:17:41;;;;;;;;;;;11.60;99.90;;;;;;7346920;19;108365;-91
2022/12/20 09:20:08;;;;;;;;;;;11.60;99.90;;;;;;7347188;19;109386;-91
2022/12/20 09:22:35;;;;;;;;;;;11.60;99.90;;;;;;7346741;19;111695;-90
2022/12/20 09:25:01;;;;;;;;;;;11.70;99.90;;;;;;7348090;19;109796;-92
2022/12/20 09:27:28;;;;;;;;;;;11.70;99.90;;;;;;7343880;19;110806;-91
2022/12/20 09:29:55;;;;;;;;;;;11.60;99.90;;;;;;7346291;19;108930;-91
2022/12/20 09:32:22;;;;;;;;;;;11.60;99.90;;;;;;7346096;19;109812;-92
2022/12/20 09:34:49;;;;;;;;;;;11.70;99.90;;;;;;7345816;19;112675;-91
2022/12/20 09:37:16;;;;;;;;;;;11.70;99.90;;;;;;7343711;19;108795;-91
2022/12/20 09:39:43;;;;;;;;;;;11.70;99.90;;;;;;7347804;19;108655;-91
2022/12/20 09:42:13;;;;;;;;;;;11.70;99.90;;;;;;7345269;19;109844;-91
2022/12/20 09:44:41;;;;;;;;;;;11.70;99.90;;;;;;7340553;19;108994;-91
2022/12/20 09:47:14;;;;;;;;;;;11.70;99.90;;;;;;7342009;19;109268;-90
2022/12/20 09:49:43;;;;;;;;;;;11.70;99.90;;;;;;7339776;19;108645;-91
2022/12/20 09:52:16;;;;;;;;;;;11.70;99.90;;;;;;7338263;19;109289;-90
2022/12/20 09:54:46;;;;;;;;;;;11.70;99.90;;;;;;7339002;19;111551;-90
2022/12/20 09:57:21;;;;;;;;;;;11.70;99.90;;;;;;7345331;19;108379;-91
2022/12/20 09:59:49;;;;;;;;;;;11.70;99.90;;;;;;7346543;19;108553;-91
2022/12/20 10:02:19;;;;;;;;;;;11.70;99.90;;;;;;7340531;19;110039;-91
2022/12/20 10:05:14;;;;;;;;;;;11.70;99.90;;;;;;7344317;19;108342;-91
2022/12/20 10:07:47;;;;;;;;;;;11.70;99.90;;;;;;7342193;19;111957;-91
2022/12/20 10:10:30;;;;;;;;;;;11.70;99.90;;;;;;7350367;19;110849;-91
2022/12/20 10:13:03;;;;;;;;;;;11.70;99.90;;;;;;7342723;19;112251;-92
2022/12/20 10:15:37;;;;;;;;;;;11.70;99.90;;;;;;7338970;19;110316;-90
2022/12/20 10:18:23;;;;;;;;;;;11.70;99.90;;;;;;7345311;19;108471;-91
2022/12/20 10:21:02;;;;;;;;;;;11.70;99.90;;;;;;7335613;19;109499;-91
2022/12/20 10:23:29;;;;;;;;;;;11.70;99.90;;;;;;7337928;19;111883;-89
2022/12/20 10:26:00;;;;;;;;;;;11.70;99.90;;;;;;7336634;19;108829;-90
2022/12/20 10:28:34;;;;;;;;;;;11.70;99.90;;;;;;7335056;19;109844;-91
2022/12/20 10:31:02;;;;;;;;;;;11.70;99.90;;;;;;7343634;19;109816;-94
2022/12/20 10:33:30;;;;;;;;;;;11.70;99.90;;;;;;7338352;19;110228;-91
2022/12/20 10:36:16;;;;;;;;;;;11.70;99.90;;;;;;7338299;19;110478;-90
2022/12/20 10:38:44;;;;;;;;;;;11.70;99.90;;;;;;7346106;19;108503;-89
2022/12/20 10:41:16;;;;;;;;;;;11.70;99.90;;;;;;7344470;19;108345;-91
2022/12/20 10:43:51;;;;;;;;;;;11.70;99.90;;;;;;7342044;19;112293;-91
2022/12/20 10:46:18;;;;;;;;;;;11.70;99.90;;;;;;7343012;19;108631;-88
2022/12/20 10:48:46;;;;;;;;;;;11.70;99.90;;;;;;7345240;19;108793;-91
2022/12/20 10:51:15;;;;;;;;;;;11.80;99.90;;;;;;7341479;19;110230;-91
2022/12/20 10:53:51;;;;;;;;;;;11.80;99.90;;;;;;7348442;19;109028;-90
2022/12/20 10:56:29;;;;;;;;;;;11.70;99.90;;;;;;7349725;19;110714;-90
2022/12/20 10:59:14;;;;;;;;;;;11.70;99.90;;;;;;7350560;19;108437;-91
2022/12/20 11:01:43;;;;;;;;;;;11.70;99.90;;;;;;7348922;19;109408;-91
2022/12/20 11:04:25;;;;;;;;;;;11.80;99.90;;;;;;7348206;19;109909;-91
2022/12/20 11:06:52;;;;;;;;;;;11.70;99.90;;;;;;7348935;19;108475;-90
2022/12/20 11:09:19;;;;;;;;;;;11.70;99.90;;;;;;7348065;19;109231;-91
2022/12/20 11:11:57;;;;;;;;;;;11.70;99.90;;;;;;7342369;19;110481;-90
2022/12/20 11:14:24;;;;;;;;;;;11.70;99.90;;;;;;7340619;19;108410;-92
2022/12/20 11:16:52;;;;;;;;;;;11.80;99.90;;;;;;7346063;19;111278;-91
2022/12/20 11:19:28;;;;;;;;;;;11.80;99.90;;;;;;7348422;19;108835;-89
2022/12/20 11:22:02;;;;;;;;;;;11.80;99.90;;;;;;7347285;19;108568;-91
2022/12/20 11:24:34;;;;;;;;;;;11.80;99.90;;;;;;7347142;19;110315;-89
2022/12/20 11:27:33;;;;;;;;;;;11.80;99.90;;;;;;7350364;19;108513;-91
2022/12/20 11:30:12;;;;;;;;;;;11.80;99.90;;;;;;7335811;19;108384;-90
2022/12/20 11:32:38;;;;;;;;;;;11.80;99.90;;;;;;7336051;19;109457;-91
2022/12/20 11:35:34;;;;;;;;;;;11.80;99.90;;;;;;7340337;19;108753;-90
2022/12/20 11:38:10;;;;;;;;;;;11.70;99.90;;;;;;7344304;19;108347;-90
2022/12/20 11:41:15;;;;;;;;;;;11.70;99.90;;;;;;7348889;19;112878;-89
2022/12/20 11:44:14;;;;;;;;;;;11.80;99.90;;;;;;7340519;19;109209;-91
2022/12/20 11:47:09;;;;;;;;;;;11.80;99.90;;;;;;7336110;19;110292;-89
2022/12/20 11:49:36;;;;;;;;;;;11.80;99.90;;;;;;7342112;19;109291;-90
2022/12/20 11:52:08;;;;;;;;;;;11.80;99.90;;;;;;7342271;19;109609;-89
2022/12/20 11:54:40;;;;;;;;;;;11.80;99.90;;;;;;7338019;19;109266;-88
2022/12/20 11:57:17;;;;;;;;;;;11.80;99.90;;;;;;7341288;19;108911;-89
2022/12/20 11:59:51;;;;;;;;;;;11.80;99.90;;;;;;7341688;19;109491;-91
2022/12/20 12:02:25;;;;;;;;;;;11.80;99.90;;;;;;7341065;19;109280;-89
2022/12/20 12:05:00;;;;;;;;;;;11.80;99.90;;;;;;7347814;19;109138;-89
2022/12/20 12:07:31;;;;;;;;;;;11.80;99.90;;;;;;7342304;19;109368;-89
2022/12/20 12:10:04;;;;;;;;;;;11.80;99.90;;;;;;7342712;19;108351;-87
2022/12/20 12:12:41;;;;;;;;;;;11.80;99.90;;;;;;7342252;19;109537;-89
2022/12/20 12:15:14;;;;;;;;;;;11.80;99.90;;;;;;7335589;19;110617;-89
2022/12/20 12:18:01;;;;;;;;;;;11.80;99.90;;;;;;7338685;19;109092;-88
2022/12/20 12:20:35;;;;;;;;;;;11.80;99.90;;;;;;7340496;19;109126;-88
2022/12/20 12:23:11;;;;;;;;;;;11.80;99.90;;;;;;7339266;19;110166;-88
2022/12/20 12:25:40;;;;;;;;;;;11.80;99.90;;;;;;7338370;19;108383;-88
2022/12/20 12:28:09;;;;;;;;;;;11.80;99.90;;;;;;7345811;19;109163;-89
2022/12/20 12:30:38;;;;;;;;;;;11.80;99.90;;;;;;7346121;19;108726;-87
2022/12/20 12:33:15;;;;;;;;;;;11.70;99.90;;;;;;7342323;19;109609;-89
2022/12/20 12:35:55;;;;;;;;;;;11.70;99.90;;;;;;7343377;19;109295;-87
2022/12/20 12:38:41;;;;;;;;;;;11.80;99.90;;;;;;7340087;19;108463;-89
2022/12/20 12:41:08;;;;;;;;;;;11.70;99.90;;;;;;7337314;19;109417;-88
2022/12/20 12:43:54;;;;;;;;;;;11.70;99.90;;;;;;7338432;19;110860;-88
2022/12/20 12:46:24;;;;;;;;;;;11.70;99.90;;;;;;7339051;19;108459;-88
2022/12/20 12:48:54;;;;;;;;;;;11.70;99.90;;;;;;7343817;19;109743;-89
2022/12/20 12:51:27;;;;;;;;;;;11.70;99.90;;;;;;7335855;19;108550;-88
2022/12/20 12:54:01;;;;;;;;;;;11.70;99.90;;;;;;7342970;19;109387;-89
2022/12/20 12:56:30;;;;;;;;;;;11.70;99.90;;;;;;7343446;19;113514;-89
2022/12/20 12:59:15;;;;;;;;;;;11.70;99.90;;;;;;7339615;19;108718;-89
2022/12/20 13:01:55;;;;;;;;;;;11.70;99.90;;;;;;7340401;19;109397;-88
2022/12/20 13:04:24;;;;;;;;;;;11.70;99.90;;;;;;7340935;19;109485;-86
2022/12/20 13:06:54;;;;;;;;;;;11.70;99.90;;;;;;7342460;19;108340;-88
2022/12/20 13:09:24;;;;;;;;;;;11.70;99.90;;;;;;7340345;19;111579;-88
2022/12/20 13:11:52;;;;;;;;;;;11.60;99.90;;;;;;7343960;19;110340;-88
2022/12/20 13:14:28;;;;;;;;;;;11.60;99.90;;;;;;7343802;19;109858;-88
2022/12/20 13:16:58;;;;;;;;;;;11.60;99.90;;;;;;7343124;19;110722;-88
2022/12/20 13:19:48;;;;;;;;;;;11.60;99.90;;;;;;7338106;19;108322;-88
2022/12/20 13:22:20;;;;;;;;;;;11.60;99.90;;;;;;7343745;19;108633;-88
2022/12/20 13:24:55;;;;;;;;;;;11.50;99.90;;;;;;7340945;19;110520;-88
2022/12/20 13:27:24;;;;;;;;;;;11.50;99.90;;;;;;7342671;19;108335;-87
2022/12/20 13:29:54;;;;;;;;;;;11.50;99.90;;;;;;7344044;19;109740;-88
2022/12/20 13:32:39;;;;;;;;;;;11.60;99.90;;;;;;7342231;19;110724;-87
2022/12/20 13:35:26;;;;;;;;;;;11.60;99.90;;;;;;7345167;19;109144;-89
2022/12/20 13:37:53;;;;;;;;;;;11.60;99.90;;;;;;7337591;19;110555;-90
2022/12/20 13:40:42;;;;;;;;;;;11.60;99.90;;;;;;7335451;19;109566;-89
2022/12/20 13:43:14;;;;;;;;;;;11.60;99.90;;;;;;7334652;19;111974;-89
2022/12/20 13:45:44;;;;;;;;;;;11.60;99.90;;;;;;7336861;19;112730;-89
2022/12/20 13:48:14;;;;;;;;;;;11.60;99.90;;;;;;7337327;19;109329;-88
2022/12/20 13:50:47;;;;;;;;;;;11.60;99.90;;;;;;7336649;19;109632;-90
2022/12/20 13:53:17;;;;;;;;;;;11.60;99.90;;;;;;7338803;19;109649;-89
2022/12/20 13:55:45;;;;;;;;;;;11.60;99.90;;;;;;7336272;19;109262;-89
2022/12/20 13:58:14;;;;;;;;;;;11.50;99.90;;;;;;7340407;19;112024;-89
2022/12/20 14:00:41;;;;;;;;;;;11.50;99.90;;;;;;7338971;19;109580;-89
2022/12/20 14:03:15;;;;;;;;;;;11.50;99.90;;;;;;7336069;19;109749;-89
2022/12/20 14:05:42;;;;;;;;;;;11.50;99.90;;;;;;7334509;19;110575;-89
2022/12/20 14:08:21;;;;;;;;;;;11.50;99.90;;;;;;7335001;19;109926;-90
2022/12/20 14:10:50;;;;;;;;;;;11.50;99.90;;;;;;7334938;19;110119;-89
2022/12/20 14:13:22;;;;;;;;;;;11.50;99.90;;;;;;7333642;19;109309;-89
2022/12/20 14:15:49;;;;;;;;;;;11.50;99.90;;;;;;7335603;19;108547;-89
2022/12/20 14:18:17;;;;;;;;;;;11.50;99.90;;;;;;7332137;19;109200;-89
2022/12/20 14:20:55;;;;;;;;;;;11.50;99.90;;;;;;7340709;19;109745;-89
2022/12/20 14:23:23;;;;;;;;;;;11.50;99.90;;;;;;7335111;19;108817;-89
2022/12/20 14:25:58;;;;;;;;;;;11.50;99.90;;;;;;7340093;19;109836;-88
2022/12/20 14:28:30;;;;;;;;;;;11.50;99.90;;;;;;7342674;19;108479;-89